createdAt,value
2017-10-27T00:01:53.311Z,48.07
2017-10-27T00:04:21.076Z,53.27
2017-10-27T00:06:48.743Z,54.97
2017-10-27T00:09:16.390Z,49.27
2017-10-27T00:11:44.256Z,50.27
2017-10-27T00:14:11.871Z,45.23
2017-10-27T00:16:39.531Z,44.70
2017-10-27T00:19:07.288Z,45.97
2017-10-27T00:21:34.907Z,48.77
2017-10-27T04:51:13.399Z,58.07
2017-10-27T04:53:41.135Z,63.40
2017-10-27T04:56:08.835Z,65.97
2017-10-27T04:58:36.560Z,58.50
2017-10-27T05:01:04.343Z,53.07
2017-10-27T05:03:31.947Z,56.57
2017-10-27T05:05:59.647Z,51.67
2017-10-27T05:08:27.504Z,50.07
2017-10-27T05:10:55.223Z,54.37
2017-10-27T05:13:22.857Z,50.50
2017-10-27T05:15:50.659Z,63.40
2017-10-27T05:18:23.812Z,55.10
2017-10-27T05:20:57.088Z,50.57
2017-10-27T05:23:30.399Z,47.87
2017-10-27T05:25:58.124Z,44.03
2017-10-27T05:28:25.743Z,57.43
2017-10-27T05:30:53.399Z,40.40
2017-10-27T05:33:21.140Z,31.10
2017-10-27T05:35:48.795Z,27.77
2017-10-27T05:38:16.425Z,27.27
2017-10-27T05:40:44.107Z,26.17
2017-10-27T05:43:11.780Z,27.27
2017-10-27T05:45:39.595Z,25.77
2017-10-27T05:48:07.362Z,23.53
2017-10-27T05:50:34.998Z,23.20
2017-10-27T05:53:02.776Z,26.77
2017-10-27T05:55:30.492Z,30.47
2017-10-27T05:57:58.137Z,29.53
2017-10-27T06:00:25.823Z,28.93
2017-10-27T06:02:53.731Z,26.93
2017-10-27T06:05:21.404Z,25.50
2017-10-27T06:07:49.047Z,25.40
2017-10-27T06:10:16.827Z,23.63
2017-10-27T06:12:44.478Z,23.70
2017-10-27T06:15:12.139Z,23.92
2017-10-27T06:17:39.841Z,22.63
2017-10-27T06:20:07.455Z,22.57
2017-10-27T06:22:35.228Z,23.00
2017-10-27T06:25:03.063Z,24.23
2017-10-27T06:27:30.767Z,22.57
2017-10-27T06:29:58.483Z,22.20
2017-10-27T06:32:26.239Z,23.90
2017-10-27T06:34:53.954Z,20.13
2017-10-27T06:37:21.676Z,22.57
2017-10-27T06:39:49.521Z,21.23
2017-10-27T06:42:17.411Z,20.90
2017-10-27T06:44:45.123Z,21.80
2017-10-27T06:47:12.868Z,19.60
2017-10-27T06:49:40.475Z,21.70
2017-10-27T06:52:08.079Z,22.00
2017-10-27T06:54:35.735Z,23.57
2017-10-27T06:57:03.464Z,35.47
2017-10-27T06:59:31.147Z,40.00
2017-10-27T07:01:58.827Z,35.80
2017-10-27T07:04:26.573Z,45.17
2017-10-27T07:06:54.274Z,22.57
2017-10-27T07:09:22.056Z,16.47
2017-10-27T07:11:49.767Z,22.97
2017-10-27T07:14:17.579Z,12.70
2017-10-27T07:16:45.323Z,14.87
2017-10-27T07:19:13.060Z,11.07
2017-10-27T07:21:40.784Z,8.93
2017-10-27T07:24:08.537Z,8.47
2017-10-27T07:26:36.202Z,9.10
2017-10-27T07:29:03.839Z,7.87
2017-10-27T07:31:31.706Z,6.43
2017-10-27T07:33:59.475Z,6.93
2017-10-27T07:36:27.142Z,7.30
2017-10-27T07:38:54.887Z,6.47
2017-10-27T07:41:22.547Z,6.20
2017-10-27T07:43:50.377Z,6.07
2017-10-27T07:46:18.114Z,6.60
2017-10-27T07:48:45.797Z,7.03
2017-10-27T07:51:13.580Z,5.80
2017-10-27T07:53:41.348Z,6.10
2017-10-27T07:56:09.151Z,6.27
2017-10-27T07:58:36.825Z,5.60
2017-10-27T08:01:04.610Z,6.07
2017-10-27T08:03:32.248Z,5.33
2017-10-27T08:06:00.056Z,5.30
2017-10-27T08:08:27.988Z,5.50
2017-10-27T08:10:55.651Z,5.60
2017-10-27T08:13:23.400Z,5.53
2017-10-27T08:15:51.304Z,5.60
2017-10-27T08:18:19.101Z,5.93
2017-10-27T08:20:46.812Z,5.23
2017-10-27T08:23:14.502Z,5.40
2017-10-27T08:25:42.220Z,5.00
2017-10-27T08:28:09.983Z,5.10
2017-10-27T08:30:37.712Z,5.77
2017-10-27T08:33:06.448Z,8.73
2017-10-27T08:35:34.083Z,5.53
2017-10-27T08:38:01.875Z,6.87
2017-10-27T08:40:29.582Z,6.63
2017-10-27T08:42:57.404Z,7.60
2017-10-27T08:45:25.095Z,7.03
2017-10-27T08:47:52.778Z,6.43
2017-10-27T08:50:20.547Z,7.97
2017-10-27T08:52:48.298Z,6.77
2017-10-27T08:55:16.076Z,6.87
2017-10-27T08:57:43.772Z,7.23
2017-10-27T09:00:11.460Z,8.87
2017-10-27T09:02:39.175Z,10.07
2017-10-27T09:05:06.855Z,13.10
2017-10-27T09:07:34.635Z,13.87
2017-10-27T09:10:02.383Z,15.50
2017-10-27T09:12:30.119Z,14.43
2017-10-27T09:14:57.894Z,14.80
2017-10-27T09:17:25.516Z,12.47
2017-10-27T09:19:53.196Z,10.30
2017-10-27T09:22:20.951Z,14.07
2017-10-27T09:24:48.582Z,11.00
2017-10-27T09:27:16.315Z,11.20
2017-10-27T09:29:44.035Z,17.40
2017-10-27T09:32:11.775Z,14.33
2017-10-27T09:34:39.468Z,8.87
2017-10-27T09:37:07.335Z,24.17
2017-10-27T09:39:35.111Z,7.70
2017-10-27T09:42:02.857Z,9.10
2017-10-27T09:44:30.659Z,9.27
2017-10-27T09:46:58.347Z,7.30
2017-10-27T09:49:26.108Z,7.93
2017-10-27T09:51:53.860Z,7.10
2017-10-27T09:54:21.516Z,6.23
2017-10-27T09:56:49.253Z,8.20
2017-10-27T09:59:17.160Z,5.80
2017-10-27T10:01:44.815Z,6.50
2017-10-27T10:04:12.609Z,5.77
2017-10-27T10:06:40.348Z,5.87
2017-10-27T10:09:08.083Z,5.40
2017-10-27T10:11:35.755Z,5.30
2017-10-27T10:14:03.645Z,5.30
2017-10-27T10:16:31.383Z,5.57
2017-10-27T10:18:59.067Z,5.30
2017-10-27T10:21:26.791Z,5.00
2017-10-27T10:23:54.562Z,4.93
2017-10-27T10:26:22.254Z,4.50
2017-10-27T10:28:50.004Z,5.73
2017-10-27T10:31:17.739Z,4.37
2017-10-27T10:33:45.396Z,4.50
2017-10-27T10:36:13.159Z,4.93
2017-10-27T10:38:40.766Z,4.67
2017-10-27T10:41:08.431Z,4.50
2017-10-27T10:43:36.159Z,9.33
2017-10-27T10:46:03.808Z,6.90
2017-10-27T10:48:31.415Z,8.53
2017-10-27T10:50:59.083Z,5.40
2017-10-27T10:53:26.775Z,4.60
2017-10-27T10:55:54.460Z,4.83
2017-10-27T10:58:22.137Z,4.60
2017-10-27T11:00:50.115Z,5.27
2017-10-27T11:03:17.829Z,4.20
2017-10-27T11:05:45.625Z,4.07
2017-10-27T11:08:13.303Z,4.80
2017-10-27T11:10:41.102Z,4.57
2017-10-27T11:13:09.008Z,4.17
2017-10-27T11:15:36.855Z,4.97
2017-10-27T11:18:04.670Z,5.27
2017-10-27T11:20:32.354Z,4.23
2017-10-27T11:23:00.014Z,3.93
2017-10-27T11:25:27.744Z,5.43
2017-10-27T11:27:55.504Z,6.70
2017-10-27T11:30:23.119Z,4.83
2017-10-27T11:32:50.771Z,5.60
2017-10-27T11:35:18.626Z,4.87
2017-10-27T11:37:46.368Z,6.03
2017-10-27T11:40:13.959Z,4.50
2017-10-27T11:42:41.819Z,4.20
2017-10-27T11:45:09.412Z,5.27
2017-10-27T11:47:37.111Z,4.90
2017-10-27T11:50:04.912Z,4.70
2017-10-27T11:52:32.616Z,4.00
2017-10-27T11:55:00.223Z,4.77
2017-10-27T11:57:27.931Z,4.40
2017-10-27T11:59:55.614Z,3.30
2017-10-27T12:02:23.259Z,3.27
2017-10-27T12:04:51.905Z,4.60
2017-10-27T12:07:19.619Z,5.67
2017-10-27T12:09:47.254Z,4.77
2017-10-27T12:12:14.967Z,4.50
2017-10-27T12:14:42.648Z,4.40
2017-10-27T12:17:10.327Z,4.73
2017-10-27T12:19:38.107Z,5.47
2017-10-27T12:22:05.731Z,4.17
2017-10-27T12:24:33.469Z,3.07
2017-10-27T12:27:01.321Z,4.70
2017-10-27T12:29:29.099Z,5.23
2017-10-27T12:31:56.770Z,4.40
2017-10-27T12:34:24.533Z,8.10
2017-10-27T12:36:52.239Z,3.87
2017-10-27T12:39:19.899Z,3.33
2017-10-27T12:41:47.668Z,3.10
2017-10-27T12:44:15.328Z,2.57
2017-10-27T12:46:42.942Z,2.90
2017-10-27T12:49:10.588Z,2.53
2017-10-27T12:51:38.258Z,3.20
2017-10-27T12:54:05.927Z,3.60
2017-10-27T12:56:33.677Z,3.10
2017-10-27T12:59:01.284Z,4.27
2017-10-27T13:01:29.000Z,3.43
2017-10-27T13:03:56.662Z,3.17
2017-10-27T13:06:24.268Z,3.10
2017-10-27T13:08:52.004Z,3.10
2017-10-27T13:11:19.772Z,3.00
2017-10-27T13:13:47.475Z,4.40
2017-10-27T13:16:15.128Z,5.17
2017-10-27T13:18:42.823Z,3.93
2017-10-27T13:21:10.460Z,3.87
2017-10-27T13:23:38.172Z,3.43
2017-10-27T13:26:06.064Z,3.60
2017-10-27T13:28:33.747Z,3.53
2017-10-27T13:31:01.395Z,3.80
2017-10-27T13:33:29.244Z,4.90
2017-10-27T13:35:56.903Z,5.20
2017-10-27T13:38:24.599Z,5.20
2017-10-27T13:40:52.372Z,6.53
2017-10-27T13:43:20.039Z,4.77
2017-10-27T13:45:47.803Z,4.20
2017-10-27T13:48:15.491Z,4.27
2017-10-27T13:50:43.123Z,5.43
2017-10-27T13:53:10.756Z,6.10
2017-10-27T13:55:38.486Z,5.43
2017-10-27T13:58:06.106Z,4.80
2017-10-27T14:00:33.878Z,5.37
2017-10-27T14:03:01.648Z,6.57
2017-10-27T14:05:29.296Z,5.80
2017-10-27T14:07:56.960Z,7.57
2017-10-27T14:10:24.735Z,9.30
2017-10-27T14:12:52.366Z,4.40
2017-10-27T14:15:20.064Z,4.03
2017-10-27T14:17:47.807Z,13.43
2017-10-27T14:20:15.572Z,54.63
2017-10-27T14:22:43.250Z,18.30
2017-10-27T14:25:10.968Z,8.37
2017-10-27T14:27:38.584Z,2.93
2017-10-27T14:30:06.191Z,3.70
2017-10-27T14:32:34.572Z,3.23
2017-10-27T14:35:02.192Z,3.20
2017-10-27T14:37:29.877Z,7.57
2017-10-27T14:39:57.696Z,8.10
2017-10-27T14:42:25.364Z,8.77
2017-10-27T14:44:53.096Z,8.90
2017-10-27T14:47:20.851Z,9.83
2017-10-27T14:49:48.466Z,16.50
2017-10-27T14:52:16.092Z,15.30
2017-10-27T14:54:43.953Z,13.10
2017-10-27T14:57:11.593Z,13.13
2017-10-27T14:59:39.267Z,10.70
2017-10-27T15:02:06.948Z,11.83
2017-10-27T15:04:34.556Z,13.97
2017-10-27T15:07:02.159Z,13.40
2017-10-27T15:09:29.892Z,13.50
2017-10-27T15:11:57.558Z,13.47
2017-10-27T15:14:25.188Z,13.57
2017-10-27T15:16:52.872Z,13.00
2017-10-27T15:19:20.559Z,16.10
2017-10-27T15:21:48.210Z,18.27
2017-10-27T15:24:15.883Z,18.70
2017-10-27T15:26:43.649Z,18.93
2017-10-27T15:29:11.339Z,18.63
2017-10-27T15:31:38.988Z,18.53
2017-10-27T15:34:06.679Z,16.40
2017-10-27T15:36:34.327Z,17.80
2017-10-27T15:39:01.989Z,17.07
2017-10-27T15:41:29.631Z,17.27
2017-10-27T15:43:57.239Z,18.50
2017-10-27T15:46:24.976Z,18.87
2017-10-27T15:48:52.615Z,20.27
2017-10-27T15:51:20.292Z,22.50
2017-10-27T15:53:48.144Z,25.20
2017-10-27T15:56:15.887Z,23.37
2017-10-27T15:58:43.534Z,19.27
2017-10-27T16:01:11.248Z,19.50
2017-10-27T16:03:38.903Z,18.00
2017-10-27T16:06:06.621Z,19.70
2017-10-27T16:08:34.347Z,22.73
2017-10-27T16:11:02.034Z,26.37
2017-10-27T16:13:29.716Z,19.70
2017-10-27T16:15:57.369Z,20.53
2017-10-27T16:18:24.974Z,21.63
2017-10-27T16:20:52.635Z,21.17
2017-10-27T16:23:20.296Z,24.93
2017-10-27T16:25:47.927Z,28.07
2017-10-27T16:28:15.591Z,20.83
2017-10-27T16:30:43.285Z,23.80
2017-10-27T16:33:10.900Z,27.80
2017-10-27T16:35:38.503Z,31.97
2017-10-27T16:38:06.240Z,32.90
2017-10-27T16:40:33.844Z,34.23
2017-10-27T16:43:01.459Z,33.03
2017-10-27T16:45:29.204Z,31.73
2017-10-27T16:47:56.899Z,31.67
2017-10-27T16:50:24.579Z,27.93
2017-10-27T16:52:52.335Z,33.40
2017-10-27T16:55:19.957Z,25.67
2017-10-27T16:57:47.592Z,39.00
2017-10-27T17:00:15.359Z,40.70
2017-10-27T17:02:43.088Z,32.63
2017-10-27T17:05:10.720Z,35.67
2017-10-27T17:07:38.387Z,33.60
2017-10-27T17:10:06.133Z,20.17
2017-10-27T17:12:34.560Z,20.50
2017-10-27T17:15:02.334Z,21.07
2017-10-27T17:17:29.952Z,17.80
2017-10-27T17:19:57.575Z,18.13
2017-10-27T17:22:25.274Z,19.83
2017-10-27T17:24:52.956Z,22.40
2017-10-27T17:27:20.657Z,20.33
2017-10-27T17:29:48.390Z,20.90
2017-10-27T17:32:16.027Z,18.20
2017-10-27T17:34:43.678Z,18.13
2017-10-27T17:37:11.352Z,18.60
2017-10-27T17:39:39.032Z,21.23
2017-10-27T17:42:06.645Z,22.30
2017-10-27T17:44:34.333Z,25.03
2017-10-27T17:47:02.144Z,25.00
2017-10-27T17:49:29.817Z,24.20
2017-10-27T17:51:57.604Z,23.80
2017-10-27T17:54:25.290Z,27.37
2017-10-27T17:56:53.044Z,24.73
2017-10-27T17:59:20.836Z,28.43
2017-10-27T18:01:48.629Z,28.00
2017-10-27T18:04:16.320Z,28.63
2017-10-27T18:06:44.060Z,29.90
2017-10-27T18:09:11.768Z,30.07
2017-10-27T18:11:39.371Z,29.10
2017-10-27T18:14:07.087Z,35.70
2017-10-27T18:16:34.791Z,33.10
2017-10-27T18:19:02.536Z,34.53
2017-10-27T18:21:30.333Z,36.50
2017-10-27T18:23:58.054Z,36.97
2017-10-27T18:26:25.725Z,37.80
2017-10-27T18:28:53.472Z,34.07
2017-10-27T18:31:21.082Z,33.77
2017-10-27T18:33:48.761Z,47.17
2017-10-27T18:36:16.441Z,30.60
2017-10-27T18:38:44.183Z,33.90
2017-10-27T18:41:11.810Z,33.70
2017-10-27T18:43:39.749Z,30.70
2017-10-27T18:46:07.367Z,28.43
2017-10-27T18:48:35.085Z,21.60
2017-10-27T18:51:02.812Z,15.70
2017-10-27T18:53:30.901Z,16.60
2017-10-27T18:55:58.505Z,14.77
2017-10-27T18:58:26.236Z,21.87
2017-10-27T19:00:54.109Z,32.07
2017-10-27T19:03:21.771Z,26.47
2017-10-27T19:05:49.484Z,29.70
2017-10-27T19:08:17.165Z,28.70
2017-10-27T19:10:44.835Z,24.37
2017-10-27T19:13:12.540Z,23.60
2017-10-27T19:15:40.156Z,24.10
2017-10-27T19:18:07.759Z,17.00
2017-10-27T19:20:35.500Z,19.07
2017-10-27T19:23:03.168Z,25.07
2017-10-27T19:25:30.858Z,41.97
2017-10-27T19:27:58.516Z,34.50
2017-10-27T19:30:26.132Z,28.23
2017-10-27T19:32:53.736Z,30.30
2017-10-27T19:35:21.416Z,30.30
2017-10-27T19:37:49.857Z,27.80
2017-10-27T19:40:17.497Z,28.80
2017-10-27T19:42:45.241Z,28.23
2017-10-27T19:45:12.928Z,28.10
2017-10-27T19:47:40.591Z,30.47
2017-10-27T19:50:08.240Z,23.30
2017-10-27T19:52:35.843Z,25.37
2017-10-27T19:55:03.471Z,25.70
2017-10-27T19:57:31.261Z,27.07
2017-10-27T19:59:58.867Z,24.97
2017-10-27T20:02:26.576Z,22.67
2017-10-27T20:04:54.848Z,26.07
2017-10-27T20:07:22.596Z,29.03
2017-10-27T20:09:50.357Z,26.20
2017-10-27T20:12:18.086Z,26.60
2017-10-27T20:14:45.755Z,29.37
2017-10-27T20:17:13.371Z,41.87
2017-10-27T20:19:41.047Z,36.77
2017-10-27T20:22:08.704Z,37.40
2017-10-27T20:24:36.378Z,40.37
2017-10-27T20:27:04.033Z,38.90
2017-10-27T20:29:31.741Z,39.87
2017-10-27T20:31:59.527Z,38.47
2017-10-27T20:34:27.188Z,37.20
2017-10-27T20:36:54.852Z,35.93
2017-10-27T20:39:22.516Z,35.47
2017-10-27T20:41:50.196Z,35.90
2017-10-27T20:44:17.804Z,33.93
2017-10-27T20:46:45.472Z,35.90
2017-10-27T20:49:13.188Z,34.30
2017-10-27T20:51:40.815Z,29.10
2017-10-27T20:54:09.151Z,32.03
2017-10-27T20:56:36.810Z,33.30
2017-10-27T20:59:04.434Z,35.70
2017-10-27T21:01:32.137Z,34.33
2017-10-27T21:03:59.804Z,32.40
2017-10-27T21:06:27.411Z,32.80
2017-10-27T21:08:55.076Z,32.10
2017-10-27T21:11:22.736Z,30.37
2017-10-27T21:13:50.340Z,31.87
2017-10-27T21:16:17.949Z,32.20
2017-10-27T21:18:45.640Z,28.93
2017-10-27T21:21:13.250Z,28.63
2017-10-27T21:23:40.858Z,30.33
2017-10-27T21:26:08.503Z,29.70
2017-10-27T21:28:36.217Z,31.73
2017-10-27T21:31:03.819Z,27.77
2017-10-27T21:33:31.479Z,30.13
2017-10-27T21:35:59.104Z,29.80
2017-10-27T21:38:26.721Z,28.70
2017-10-27T21:40:54.437Z,29.20
2017-10-27T21:43:22.043Z,27.83
2017-10-27T21:45:49.643Z,25.73
2017-10-27T21:48:17.307Z,24.63
2017-10-27T21:50:44.972Z,23.23
2017-10-27T21:53:12.599Z,21.90
2017-10-27T21:55:40.255Z,20.30
2017-10-27T21:58:08.025Z,20.40
2017-10-27T22:00:35.803Z,18.47
2017-10-27T22:03:03.797Z,17.57
2017-10-27T22:05:31.466Z,18.90
2017-10-27T22:07:59.075Z,23.13
2017-10-27T22:10:26.747Z,22.50
2017-10-27T22:12:55.263Z,20.03
2017-10-27T22:15:22.935Z,21.70
2017-10-27T22:17:50.599Z,19.97
2017-10-27T22:20:18.227Z,17.40
2017-10-27T22:22:46.739Z,16.43
2017-10-27T22:25:14.557Z,18.93
2017-10-27T22:27:42.171Z,16.80
2017-10-27T22:30:09.778Z,19.50
2017-10-27T22:32:37.423Z,21.70
2017-10-27T22:35:05.089Z,19.10
2017-10-27T22:37:32.762Z,19.77
2017-10-27T22:40:00.477Z,19.93
2017-10-27T22:42:28.090Z,20.70
2017-10-27T22:44:55.758Z,21.07
2017-10-27T22:47:23.496Z,20.70
2017-10-27T22:49:51.099Z,20.73
2017-10-27T22:52:18.717Z,20.83
2017-10-27T22:54:46.432Z,20.40
2017-10-27T22:57:14.088Z,21.03
2017-10-27T22:59:42.396Z,21.70
2017-10-27T23:02:10.068Z,20.63
2017-10-27T23:04:37.943Z,15.00
2017-10-27T23:07:05.538Z,11.47
2017-10-27T23:09:33.263Z,11.27
2017-10-27T23:12:00.920Z,10.73
2017-10-27T23:14:28.691Z,9.73
2017-10-27T23:16:56.407Z,7.80
2017-10-27T23:19:24.016Z,8.40
2017-10-27T23:21:51.649Z,5.63
2017-10-27T23:24:20.420Z,5.73
2017-10-27T23:26:48.128Z,4.13
2017-10-27T23:29:15.869Z,4.03
2017-10-27T23:31:43.623Z,6.80
2017-10-27T23:34:11.311Z,7.60
2017-10-27T23:36:38.915Z,6.40
2017-10-27T23:39:06.705Z,5.20
2017-10-27T23:41:34.416Z,4.07
2017-10-27T23:44:02.093Z,4.07
2017-10-27T23:46:30.176Z,3.33
2017-10-27T23:48:57.992Z,2.60
2017-10-27T23:51:25.651Z,3.20
2017-10-27T23:53:53.403Z,3.17
2017-10-27T23:56:21.003Z,3.20
2017-10-27T23:58:49.495Z,4.63
